Joplin, MO (64801)

4:48 PM CDT on July 02, 2015 (GMT -0500)
Oakland Park / Royal Heights | | Change Station
CLOSE
Current Station
Personal Weather Station
Location: Joplin, MO
Elevation: 1030 ft
Nearby Weather Stations

Elev 1030 ft 37.12 °N, 94.48 °W | Updated 11 minutes ago

Overcast
Overcast
84.2 °F
Feels Like 95 °F
N
6.7
Wind Variable Wind from NNW

Today
High -- | Low -- °F
--% Chance of Precip.
Yesterday
High -- | Low -- °F
Precip. -- in
6:02 AM 8:41 PM
Full, 99% visible
Pressure 29.85 in
Visibility 10.0 miles
Clouds Mostly Cloudy 2200 ft
Heat Index 95 °F
Dew Point 77 °F
Humidity 80%
Rainfall 0.00 in
Snow Depth Not available.
UV 5 out of 12
Pollen 2.80 out of 12
Air Quality Not available.
Flu Activity Not available.
METAR KJLN 022053Z 35007KT 10SM BKN022 29/23 A2989 RMK AO2 SLP108 T02890228 53000

More Conditions Fewer Conditions

Pressure 29.85 in
Visibility 10.0 miles
Clouds Mostly Cloudy 2200 ft
Heat Index 95 °F
Dew Point 77 °F
Humidity 80%
Rainfall 0.00 in
Snow Depth Not available.
UV 5 out of 12
Pollen 2.80 out of 12
Air Quality Not available.
Flu Activity Not available.
METAR KJLN 022053Z 35007KT 10SM BKN022 29/23 A2989 RMK AO2 SLP108 T02890228 53000

More Conditions Fewer Conditions

10-Day Weather Forecast

×

Almanac

Astronomy

Jul. 02, 2015 Rise Set
Actual Time
Civil Twilight
Nautical Twilight
Astronomical Twilight
Moon
Length of Visible Light
Length of Day
Tomorrow will be .
, % of the Moon is Illuminated

Today's Extremes

State Highs State Lows

Community

WunderPhotos

Upload Photos

1,834,548 photos uploaded!

WunderBlogs® & News

Nearby

Air Quality

  Air Quality AQ Index Pollutant
Not available.

Snow Depth

Station Depth Elevation

Earthquake Activity

City Distance Mag. Time & Date
Minimum magnitude displayed is 2.5.

Coastal Water Temperatures

Place Temperature

Stations

Nearby Weather Stations

Station Location Temp. Windchill Dew Point Humidity Wind Precip. Elev Updated Type